Time;durP1;ratioP1;P1;durP2;ratioP2;P2;SDS_P1;SDS_P2;PMS_P1;PMS_P2;Temp;Humidity;BMP_temperature;BMP_pressure;BME280_temperature;BME280_humidity;BME280_pressure;Samples;Min_cycle;Max_cycle;Signal;HPM_P1;HPM_P2
2022/08/28 02:45:38;;;;;;;0.30;0.30;;;;;;;;;;7393708;19;20541;-69
2022/08/28 02:48:04;;;;;;;0.40;0.40;;;;;;;;;;7389766;19;20405;-69
2022/08/28 02:50:30;;;;;;;0.40;0.40;;;;;;;;;;7392786;19;20148;-69
2022/08/28 02:52:56;;;;;;;0.52;0.52;;;;;;;;;;7391342;19;20587;-69
2022/08/28 02:55:23;;;;;;;0.40;0.40;;;;;;;;;;7389790;19;20129;-69
2022/08/28 02:57:48;;;;;;;1.38;0.47;;;;;;;;;;7395744;19;20144;-69
2022/08/28 03:00:18;;;;;;;0.45;0.45;;;;;;;;;;7384507;19;21267;-69
2022/08/28 03:02:45;;;;;;;0.60;0.60;;;;;;;;;;7381084;19;20172;-69
2022/08/28 03:05:10;;;;;;;1.77;1.05;;;;;;;;;;7386129;19;20149;-69
2022/08/28 03:07:35;;;;;;;0.30;0.30;;;;;;;;;;7384202;19;20197;-69
2022/08/28 03:10:01;;;;;;;0.50;0.50;;;;;;;;;;7390269;19;20733;-69
2022/08/28 03:12:26;;;;;;;0.60;0.60;;;;;;;;;;7380011;19;20145;-69
2022/08/28 03:14:53;;;;;;;0.85;0.75;;;;;;;;;;7380273;19;20168;-69
2022/08/28 03:17:20;;;;;;;0.30;0.30;;;;;;;;;;7377912;19;21488;-69
2022/08/28 03:19:45;;;;;;;0.95;0.95;;;;;;;;;;7386885;19;20129;-69
2022/08/28 03:22:11;;;;;;;0.30;0.30;;;;;;;;;;7380206;19;20529;-69
2022/08/28 03:24:36;;;;;;;0.30;0.30;;;;;;;;;;7379174;19;20129;-69
2022/08/28 03:27:02;;;;;;;0.30;0.30;;;;;;;;;;7379779;19;20121;-69
2022/08/28 03:29:27;;;;;;;0.30;0.30;;;;;;;;;;7378766;19;20133;-69
2022/08/28 03:31:53;;;;;;;0.80;0.55;;;;;;;;;;7389220;19;20117;-69
2022/08/28 03:34:19;;;;;;;0.50;0.50;;;;;;;;;;7385060;19;20159;-69
2022/08/28 03:36:45;;;;;;;0.30;0.30;;;;;;;;;;7381221;19;20492;-69
2022/08/28 03:39:10;;;;;;;0.30;0.30;;;;;;;;;;7387352;19;20125;-70
2022/08/28 03:41:35;;;;;;;0.30;0.30;;;;;;;;;;7385505;19;20134;-71
2022/08/28 03:44:01;;;;;;;0.30;0.30;;;;;;;;;;7384135;19;20174;-71
2022/08/28 03:46:31;;;;;;;0.30;0.30;;;;;;;;;;7383079;19;20141;-71
2022/08/28 03:48:57;;;;;;;0.93;0.93;;;;;;;;;;7387878;19;20121;-69
2022/08/28 03:51:25;;;;;;;0.77;0.77;;;;;;;;;;7382926;19;20120;-69
2022/08/28 03:53:51;;;;;;;0.30;0.30;;;;;;;;;;7387154;19;20161;-69
2022/08/28 03:56:20;;;;;;;0.68;0.68;;;;;;;;;;7392034;19;20127;-69
2022/08/28 03:58:50;;;;;;;0.30;0.30;;;;;;;;;;7389928;19;20184;-69
2022/08/28 04:01:16;;;;;;;0.50;0.50;;;;;;;;;;7391703;19;20470;-69
2022/08/28 04:03:41;;;;;;;0.30;0.30;;;;;;;;;;7390183;19;20181;-69
2022/08/28 04:06:06;;;;;;;0.30;0.30;;;;;;;;;;7391451;19;20112;-69
2022/08/28 04:08:31;;;;;;;0.30;0.30;;;;;;;;;;7392551;19;20209;-69
2022/08/28 04:10:59;;;;;;;0.30;0.30;;;;;;;;;;7392628;19;20127;-69
2022/08/28 04:13:25;;;;;;;0.30;0.30;;;;;;;;;;7388911;19;20149;-69
2022/08/28 04:15:58;;;;;;;0.30;0.30;;;;;;;;;;7392713;19;20116;-69
2022/08/28 04:18:25;;;;;;;0.30;0.30;;;;;;;;;;7389753;19;20137;-71
2022/08/28 04:21:02;;;;;;;0.30;0.30;;;;;;;;;;7385734;19;20133;-71
2022/08/28 04:23:28;;;;;;;0.57;0.57;;;;;;;;;;7385615;19;20627;-72
2022/08/28 04:25:54;;;;;;;0.75;0.75;;;;;;;;;;7383411;19;20547;-69
2022/08/28 04:28:20;;;;;;;0.77;0.77;;;;;;;;;;7379051;19;20143;-69
2022/08/28 04:30:46;;;;;;;0.20;0.20;;;;;;;;;;7389073;19;20136;-69
2022/08/28 04:33:11;;;;;;;0.30;0.30;;;;;;;;;;7382602;19;20893;-69
2022/08/28 04:35:39;;;;;;;0.30;0.30;;;;;;;;;;7383384;19;20181;-70
2022/08/28 04:38:05;;;;;;;0.30;0.30;;;;;;;;;;7391441;19;20125;-69
2022/08/28 04:40:30;;;;;;;0.50;0.50;;;;;;;;;;7391578;19;20128;-70
2022/08/28 04:42:55;;;;;;;1.30;1.20;;;;;;;;;;7390071;19;20208;-71
2022/08/28 04:45:21;;;;;;;0.43;0.43;;;;;;;;;;7389681;19;20141;-71
2022/08/28 04:47:46;;;;;;;0.20;0.20;;;;;;;;;;7388754;19;20192;-71
2022/08/28 04:50:11;;;;;;;0.35;0.35;;;;;;;;;;7390888;19;20486;-69
2022/08/28 04:52:36;;;;;;;0.30;0.30;;;;;;;;;;7389941;19;20152;-69
2022/08/28 04:55:03;;;;;;;0.30;0.30;;;;;;;;;;7391671;19;20148;-70
2022/08/28 04:57:29;;;;;;;0.50;0.50;;;;;;;;;;7390490;19;20466;-71
2022/08/28 04:59:55;;;;;;;0.30;0.30;;;;;;;;;;7390148;19;20188;-71
2022/08/28 05:02:20;;;;;;;0.30;0.30;;;;;;;;;;7389333;19;20140;-69
2022/08/28 05:04:46;;;;;;;0.30;0.30;;;;;;;;;;7390132;19;20137;-69
2022/08/28 05:07:11;;;;;;;0.60;0.60;;;;;;;;;;7388864;19;20113;-69
2022/08/28 05:09:36;;;;;;;0.40;0.40;;;;;;;;;;7390099;19;20172;-69
2022/08/28 05:12:03;;;;;;;0.30;0.30;;;;;;;;;;7401049;19;20120;-69
2022/08/28 05:14:29;;;;;;;0.30;0.30;;;;;;;;;;7402826;19;20636;-70
2022/08/28 05:16:56;;;;;;;0.30;0.30;;;;;;;;;;7403367;19;20152;-70
2022/08/28 05:19:22;;;;;;;0.30;0.30;;;;;;;;;;7396462;19;20113;-69
2022/08/28 05:21:48;;;;;;;0.60;0.60;;;;;;;;;;7401487;19;20143;-69
2022/08/28 05:24:14;;;;;;;0.50;0.50;;;;;;;;;;7400493;19;20646;-69
2022/08/28 05:26:39;;;;;;;0.30;0.30;;;;;;;;;;7402272;19;20500;-70
2022/08/28 05:29:05;;;;;;;0.80;0.80;;;;;;;;;;7405247;19;20172;-69
2022/08/28 05:31:32;;;;;;;1.00;1.00;;;;;;;;;;7401840;19;20141;-71
2022/08/28 05:33:59;;;;;;;0.40;0.40;;;;;;;;;;7402371;19;20159;-71
2022/08/28 05:36:25;;;;;;;0.30;0.30;;;;;;;;;;7401713;19;20123;-71
2022/08/28 05:38:54;;;;;;;0.98;0.88;;;;;;;;;;7403733;19;20523;-69
2022/08/28 05:41:21;;;;;;;0.38;0.38;;;;;;;;;;7402220;19;20609;-69
2022/08/28 05:43:48;;;;;;;0.40;0.40;;;;;;;;;;7400345;19;20614;-70
2022/08/28 05:46:14;;;;;;;0.30;0.30;;;;;;;;;;7401469;19;20121;-70
2022/08/28 05:48:41;;;;;;;0.30;0.30;;;;;;;;;;7394851;19;20160;-70
2022/08/28 05:51:12;;;;;;;0.55;0.55;;;;;;;;;;7393658;19;20149;-70
2022/08/28 05:53:40;;;;;;;0.30;0.30;;;;;;;;;;7382392;19;20168;-70
2022/08/28 05:56:10;;;;;;;2.28;0.65;;;;;;;;;;7401409;19;20128;-70
2022/08/28 05:58:36;;;;;;;0.73;0.73;;;;;;;;;;7387910;19;20128;-69
2022/08/28 06:01:26;;;;;;;0.30;0.30;;;;;;;;;;7397843;19;20125;-70
2022/08/28 06:03:54;;;;;;;0.30;0.30;;;;;;;;;;7397488;19;20156;-70
2022/08/28 06:06:21;;;;;;;0.60;0.60;;;;;;;;;;7396570;19;20599;-69
2022/08/28 06:08:47;;;;;;;0.50;0.50;;;;;;;;;;7394241;19;20128;-70
2022/08/28 06:11:12;;;;;;;0.30;0.30;;;;;;;;;;7395974;19;20160;-69
2022/08/28 06:13:38;;;;;;;0.30;0.30;;;;;;;;;;7396213;19;20485;-70
2022/08/28 06:16:03;;;;;;;1.80;1.25;;;;;;;;;;7394111;19;20124;-70
2022/08/28 06:18:29;;;;;;;0.40;0.40;;;;;;;;;;7394885;19;20129;-70
2022/08/28 06:20:54;;;;;;;0.52;0.52;;;;;;;;;;7394582;19;20141;-70
2022/08/28 06:23:21;;;;;;;0.32;0.32;;;;;;;;;;7383576;19;20157;-70
2022/08/28 06:25:48;;;;;;;0.30;0.30;;;;;;;;;;7388221;19;20125;-69
2022/08/28 06:28:16;;;;;;;0.47;0.47;;;;;;;;;;7382079;19;20148;-70
2022/08/28 06:30:42;;;;;;;0.30;0.30;;;;;;;;;;7381866;19;20125;-69
2022/08/28 06:33:08;;;;;;;0.30;0.30;;;;;;;;;;7389040;19;20169;-70
2022/08/28 06:35:39;;;;;;;0.45;0.40;;;;;;;;;;7386249;19;20605;-71
2022/08/28 06:38:04;;;;;;;0.30;0.30;;;;;;;;;;7387485;19;20157;-69
2022/08/28 06:40:29;;;;;;;0.30;0.30;;;;;;;;;;7389120;19;20121;-70
2022/08/28 06:42:55;;;;;;;0.68;0.68;;;;;;;;;;7385461;19;20153;-69
2022/08/28 06:45:20;;;;;;;0.38;0.38;;;;;;;;;;7387817;19;20118;-70
2022/08/28 06:47:46;;;;;;;0.30;0.30;;;;;;;;;;7383874;19;20153;-69
2022/08/28 06:50:11;;;;;;;0.47;0.47;;;;;;;;;;7384826;19;20217;-70
2022/08/28 06:52:37;;;;;;;0.30;0.30;;;;;;;;;;7384456;19;20156;-70
2022/08/28 06:55:02;;;;;;;0.50;0.50;;;;;;;;;;7384525;19;20119;-69
2022/08/28 06:57:27;;;;;;;0.40;0.40;;;;;;;;;;7392056;19;20125;-69
2022/08/28 06:59:56;;;;;;;0.50;0.50;;;;;;;;;;7392536;19;20622;-69
2022/08/28 07:02:22;;;;;;;0.40;0.40;;;;;;;;;;7389786;19;20149;-69
2022/08/28 07:04:53;;;;;;;0.30;0.30;;;;;;;;;;7393241;19;20484;-69
2022/08/28 07:07:21;;;;;;;0.40;0.40;;;;;;;;;;7390915;19;20133;-70
2022/08/28 07:09:47;;;;;;;0.40;0.40;;;;;;;;;;7393653;19;20188;-70
2022/08/28 07:12:16;;;;;;;0.40;0.40;;;;;;;;;;7389286;19;20580;-69
2022/08/28 07:14:42;;;;;;;0.30;0.30;;;;;;;;;;7391077;19;20121;-70
2022/08/28 07:17:08;;;;;;;0.40;0.40;;;;;;;;;;7392461;19;20209;-69
2022/08/28 07:19:33;;;;;;;0.50;0.50;;;;;;;;;;7388613;19;20125;-70
2022/08/28 07:21:59;;;;;;;0.93;0.93;;;;;;;;;;7389777;19;20161;-69
2022/08/28 07:24:25;;;;;;;0.57;0.57;;;;;;;;;;7390717;19;20948;-69
2022/08/28 07:26:51;;;;;;;0.30;0.30;;;;;;;;;;7388086;19;20455;-70
2022/08/28 07:29:17;;;;;;;1.33;1.10;;;;;;;;;;7389723;19;20141;-69
2022/08/28 07:31:46;;;;;;;0.90;0.90;;;;;;;;;;7387738;19;20125;-70
2022/08/28 07:34:12;;;;;;;0.32;0.32;;;;;;;;;;7386701;19;20164;-70
2022/08/28 07:36:38;;;;;;;0.40;0.40;;;;;;;;;;7393022;19;20464;-70
2022/08/28 07:39:04;;;;;;;0.40;0.40;;;;;;;;;;7395134;19;20123;-70
2022/08/28 07:41:31;;;;;;;1.50;0.68;;;;;;;;;;7393340;19;20614;-70
2022/08/28 07:46:40;;;;;;;0.50;0.50;;;;;;;;;;7382950;19;20228;-69
2022/08/28 07:49:07;;;;;;;0.73;0.73;;;;;;;;;;7389691;19;20204;-70
2022/08/28 07:51:33;;;;;;;0.30;0.30;;;;;;;;;;7389560;19;20145;-70
2022/08/28 07:53:58;;;;;;;0.43;0.43;;;;;;;;;;7388776;19;20144;-70
2022/08/28 07:56:25;;;;;;;0.30;0.30;;;;;;;;;;7393634;19;20189;-70
2022/08/28 07:58:50;;;;;;;0.60;0.60;;;;;;;;;;7381478;19;20205;-69
2022/08/28 08:01:16;;;;;;;0.30;0.30;;;;;;;;;;7389466;19;20611;-70
2022/08/28 08:03:42;;;;;;;0.50;0.50;;;;;;;;;;7384348;19;20627;-69
2022/08/28 08:06:09;;;;;;;0.30;0.30;;;;;;;;;;7388562;19;20147;-70
2022/08/28 08:08:35;;;;;;;0.32;0.32;;;;;;;;;;7390373;19;20121;-69
2022/08/28 08:11:02;;;;;;;0.40;0.40;;;;;;;;;;7376628;19;20156;-70
2022/08/28 08:13:28;;;;;;;0.30;0.30;;;;;;;;;;7386896;19;20180;-69
2022/08/28 08:15:59;;;;;;;0.30;0.30;;;;;;;;;;7387151;19;20121;-69
2022/08/28 08:18:24;;;;;;;0.50;0.50;;;;;;;;;;7389858;19;20156;-70
2022/08/28 08:20:50;;;;;;;0.57;0.57;;;;;;;;;;7389848;19;20121;-70
2022/08/28 08:23:16;;;;;;;0.60;0.60;;;;;;;;;;7389052;19;20220;-70
2022/08/28 08:25:52;;;;;;;0.55;0.55;;;;;;;;;;7392463;19;20150;-70
2022/08/28 08:28:18;;;;;;;0.60;0.60;;;;;;;;;;7382497;19;20124;-70
2022/08/28 08:30:43;;;;;;;1.50;0.77;;;;;;;;;;7375150;19;20143;-70
2022/08/28 08:33:08;;;;;;;0.95;0.68;;;;;;;;;;7379746;19;20157;-70
2022/08/28 08:35:34;;;;;;;0.40;0.40;;;;;;;;;;7384784;19;20530;-70
2022/08/28 08:37:59;;;;;;;0.30;0.30;;;;;;;;;;7383599;19;20228;-70
2022/08/28 08:40:24;;;;;;;0.63;0.63;;;;;;;;;;7389649;19;20543;-70
2022/08/28 08:42:54;;;;;;;0.40;0.40;;;;;;;;;;7387770;19;20140;-70
2022/08/28 08:45:23;;;;;;;0.45;0.45;;;;;;;;;;7389098;19;20152;-69
2022/08/28 08:47:50;;;;;;;0.55;0.55;;;;;;;;;;7375377;19;20583;-70
2022/08/28 08:50:22;;;;;;;1.50;0.80;;;;;;;;;;7385328;19;20132;-70
2022/08/28 08:53:17;;;;;;;0.43;0.43;;;;;;;;;;7383525;19;21012;-72
2022/08/28 08:55:53;;;;;;;0.38;0.38;;;;;;;;;;7371326;19;20156;-70
2022/08/28 08:58:24;;;;;;;0.70;0.70;;;;;;;;;;7381189;19;20162;-71
2022/08/28 09:01:03;;;;;;;0.50;0.50;;;;;;;;;;7380105;19;20595;-71
2022/08/28 09:04:04;;;;;;;0.98;0.98;;;;;;;;;;7363648;19;20177;-70
2022/08/28 09:06:38;;;;;;;0.43;0.43;;;;;;;;;;7378592;19;20488;-70
2022/08/28 09:09:07;;;;;;;0.30;0.30;;;;;;;;;;7361895;19;20129;-71
2022/08/28 09:11:47;;;;;;;0.30;0.30;;;;;;;;;;7377092;19;20125;-71
2022/08/28 09:14:33;;;;;;;0.30;0.30;;;;;;;;;;7369089;19;20580;-71
2022/08/28 09:16:59;;;;;;;0.70;0.70;;;;;;;;;;7381386;19;20144;-70
2022/08/28 09:19:25;;;;;;;1.38;1.38;;;;;;;;;;7378599;19;20205;-70
2022/08/28 09:21:51;;;;;;;0.47;0.47;;;;;;;;;;7377622;19;20125;-70
2022/08/28 09:24:22;;;;;;;0.88;0.88;;;;;;;;;;7379838;19;20149;-70
2022/08/28 09:27:00;;;;;;;0.30;0.30;;;;;;;;;;7365575;19;20832;-70
2022/08/28 09:29:35;;;;;;;0.57;0.57;;;;;;;;;;7386571;19;20128;-70
2022/08/28 09:32:15;;;;;;;0.60;0.60;;;;;;;;;;7366417;19;20128;-70
2022/08/28 09:35:01;;;;;;;0.45;0.45;;;;;;;;;;7366875;19;20140;-70
2022/08/28 09:37:31;;;;;;;0.50;0.50;;;;;;;;;;7374436;19;20133;-70
2022/08/28 09:40:15;;;;;;;0.90;0.90;;;;;;;;;;7375806;19;20615;-70
2022/08/28 09:45:39;;;;;;;0.60;0.60;;;;;;;;;;7389605;19;20134;-70
2022/08/28 09:48:18;;;;;;;0.80;0.80;;;;;;;;;;7372548;19;20149;-70
2022/08/28 09:50:56;;;;;;;0.60;0.60;;;;;;;;;;7372362;19;20219;-72
2022/08/28 09:53:22;;;;;;;1.40;1.30;;;;;;;;;;7369087;19;20622;-72
2022/08/28 09:56:09;;;;;;;0.65;0.65;;;;;;;;;;7364011;19;20129;-71
2022/08/28 09:58:58;;;;;;;0.85;0.85;;;;;;;;;;7385676;19;20143;-71
2022/08/28 10:01:36;;;;;;;2.08;0.90;;;;;;;;;;7380067;19;20141;-72
2022/08/28 10:04:18;;;;;;;0.70;0.70;;;;;;;;;;7373789;19;20149;-71
2022/08/28 10:06:51;;;;;;;0.45;0.45;;;;;;;;;;7381775;19;20121;-71
2022/08/28 10:09:23;;;;;;;0.65;0.65;;;;;;;;;;7384038;19;20140;-71
2022/08/28 10:12:03;;;;;;;0.60;0.60;;;;;;;;;;7370165;19;22701;-72
2022/08/28 10:14:48;;;;;;;2.95;1.23;;;;;;;;;;7372860;19;20159;-71
2022/08/28 10:17:16;;;;;;;3.67;1.50;;;;;;;;;;7366165;19;20510;-72
2022/08/28 10:19:58;;;;;;;0.75;0.75;;;;;;;;;;7364589;19;20129;-72
2022/08/28 10:22:42;;;;;;;1.13;1.05;;;;;;;;;;7372475;19;20149;-71
2022/08/28 10:25:15;;;;;;;1.85;1.10;;;;;;;;;;7379755;19;20161;-71
2022/08/28 10:28:30;;;;;;;0.55;0.45;;;;;;;;;;7385626;19;20128;-71
2022/08/28 10:31:19;;;;;;;0.63;0.63;;;;;;;;;;7378451;19;20148;-71
2022/08/28 10:33:56;;;;;;;0.50;0.50;;;;;;;;;;7387091;19;20180;-71
2022/08/28 10:36:27;;;;;;;0.60;0.60;;;;;;;;;;7391546;19;20464;-71
2022/08/28 10:39:14;;;;;;;0.30;0.30;;;;;;;;;;7375094;19;20145;-71
2022/08/28 10:41:50;;;;;;;0.65;0.65;;;;;;;;;;7380068;19;20213;-71
2022/08/28 10:44:38;;;;;;;0.50;0.50;;;;;;;;;;7370633;19;20160;-71
2022/08/28 10:47:04;;;;;;;1.80;1.00;;;;;;;;;;7385528;19;20613;-72
2022/08/28 10:49:34;;;;;;;1.85;1.05;;;;;;;;;;7378457;19;20117;-72
2022/08/28 10:52:05;;;;;;;0.82;0.82;;;;;;;;;;7384941;19;20158;-72
2022/08/28 10:54:40;;;;;;;0.45;0.45;;;;;;;;;;7378798;19;20162;-72
2022/08/28 10:57:30;;;;;;;0.75;0.75;;;;;;;;;;7388015;19;20475;-72
2022/08/28 10:59:57;;;;;;;1.30;1.10;;;;;;;;;;7386305;19;20117;-72
2022/08/28 11:02:25;;;;;;;0.57;0.57;;;;;;;;;;7380412;19;20616;-72
2022/08/28 11:04:51;;;;;;;0.50;0.50;;;;;;;;;;7382199;19;20144;-71
2022/08/28 11:07:25;;;;;;;0.73;0.73;;;;;;;;;;7377785;19;20117;-72
2022/08/28 11:09:51;;;;;;;0.73;0.73;;;;;;;;;;7379237;19;20124;-72
2022/08/28 11:12:16;;;;;;;0.88;0.88;;;;;;;;;;7388480;19;20520;-72
2022/08/28 11:14:44;;;;;;;1.50;0.80;;;;;;;;;;7373298;19;20148;-72
2022/08/28 11:17:21;;;;;;;0.88;0.88;;;;;;;;;;7382681;19;20606;-72
2022/08/28 11:19:57;;;;;;;0.40;0.40;;;;;;;;;;7381659;19;20155;-72
2022/08/28 11:22:36;;;;;;;0.47;0.47;;;;;;;;;;7384317;19;20558;-72
2022/08/28 11:25:05;;;;;;;0.40;0.40;;;;;;;;;;7383668;19;20163;-72
2022/08/28 11:27:35;;;;;;;0.55;0.55;;;;;;;;;;7377145;19;20114;-72
2022/08/28 11:30:09;;;;;;;0.40;0.40;;;;;;;;;;7378086;19;20142;-72
2022/08/28 11:32:50;;;;;;;0.63;0.50;;;;;;;;;;7379966;19;20659;-72
2022/08/28 11:35:39;;;;;;;0.50;0.50;;;;;;;;;;7381395;19;20164;-72
2022/08/28 11:38:05;;;;;;;0.50;0.50;;;;;;;;;;7383028;19;20382;-73
2022/08/28 11:40:30;;;;;;;1.45;1.15;;;;;;;;;;7378760;19;20492;-73
2022/08/28 11:43:28;;;;;;;0.50;0.50;;;;;;;;;;7382768;19;20176;-72
2022/08/28 11:45:53;;;;;;;0.55;0.55;;;;;;;;;;7383667;19;20449;-73
2022/08/28 11:48:22;;;;;;;0.68;0.68;;;;;;;;;;7378438;19;20134;-73
2022/08/28 11:51:01;;;;;;;0.77;0.77;;;;;;;;;;7381653;19;20610;-72
2022/08/28 11:54:13;;;;;;;1.40;0.65;;;;;;;;;;7379522;19;20149;-73
2022/08/28 11:56:41;;;;;;;0.43;0.43;;;;;;;;;;7381814;19;20129;-73
2022/08/28 11:59:39;;;;;;;0.60;0.50;;;;;;;;;;7382896;19;20494;-73
2022/08/28 12:02:39;;;;;;;0.40;0.40;;;;;;;;;;7383719;19;20564;-74
2022/08/28 12:05:08;;;;;;;0.57;0.57;;;;;;;;;;7385979;19;20151;-73
2022/08/28 12:07:44;;;;;;;0.57;0.57;;;;;;;;;;7384147;19;20603;-73
2022/08/28 12:10:19;;;;;;;0.80;0.80;;;;;;;;;;7379563;19;20207;-74
2022/08/28 12:12:44;;;;;;;0.60;0.60;;;;;;;;;;7374906;19;20148;-73
2022/08/28 12:15:30;;;;;;;0.77;0.77;;;;;;;;;;7383333;19;20416;-73
2022/08/28 12:18:45;;;;;;;0.40;0.40;;;;;;;;;;7383612;19;20129;-72
2022/08/28 12:21:16;;;;;;;0.52;0.52;;;;;;;;;;7360431;19;20140;-73
2022/08/28 12:23:58;;;;;;;0.40;0.40;;;;;;;;;;7377478;19;20152;-73
2022/08/28 12:26:30;;;;;;;0.50;0.50;;;;;;;;;;7374789;19;20121;-73
2022/08/28 12:28:57;;;;;;;0.40;0.40;;;;;;;;;;7357515;19;20470;-73
2022/08/28 12:34:40;;;;;;;0.35;0.35;;;;;;;;;;7378976;19;20694;-73
2022/08/28 12:37:21;;;;;;;0.57;0.57;;;;;;;;;;7377901;19;20148;-72
2022/08/28 12:39:46;;;;;;;1.02;0.95;;;;;;;;;;7368853;19;20116;-72
2022/08/28 12:42:17;;;;;;;0.60;0.60;;;;;;;;;;7369039;19;20140;-73
2022/08/28 12:44:43;;;;;;;0.40;0.40;;;;;;;;;;7370334;19;20117;-73
2022/08/28 12:47:12;;;;;;;0.52;0.52;;;;;;;;;;7386174;19;20625;-73
2022/08/28 12:49:37;;;;;;;0.50;0.50;;;;;;;;;;7374483;19;20121;-73
2022/08/28 12:52:21;;;;;;;0.40;0.40;;;;;;;;;;7381270;19;20125;-73
2022/08/28 12:54:48;;;;;;;0.55;0.55;;;;;;;;;;7382935;19;20540;-73
2022/08/28 12:57:16;;;;;;;0.77;0.75;;;;;;;;;;7364338;19;20124;-72
2022/08/28 12:59:43;;;;;;;0.70;0.70;;;;;;;;;;7366329;19;20141;-72
2022/08/28 13:02:32;;;;;;;0.70;0.70;;;;;;;;;;7375490;19;20129;-72
2022/08/28 13:05:00;;;;;;;0.93;0.93;;;;;;;;;;7366751;19;20499;-73
2022/08/28 13:07:31;;;;;;;0.50;0.50;;;;;;;;;;7370828;19;20152;-73
2022/08/28 13:10:00;;;;;;;0.57;0.57;;;;;;;;;;7374380;19;20192;-73
2022/08/28 13:12:39;;;;;;;0.50;0.50;;;;;;;;;;7363661;19;20473;-73
2022/08/28 13:15:06;;;;;;;0.40;0.40;;;;;;;;;;7380932;19;20116;-73
2022/08/28 13:17:43;;;;;;;0.43;0.43;;;;;;;;;;7375055;19;20141;-73
2022/08/28 13:20:10;;;;;;;0.40;0.40;;;;;;;;;;7384492;19;20141;-73
2022/08/28 13:22:39;;;;;;;0.40;0.40;;;;;;;;;;7380851;19;20145;-73
2022/08/28 13:25:05;;;;;;;0.50;0.50;;;;;;;;;;7378964;19;20729;-73
2022/08/28 13:27:31;;;;;;;0.90;0.80;;;;;;;;;;7365702;19;20152;-73
2022/08/28 13:30:19;;;;;;;0.40;0.40;;;;;;;;;;7357324;19;20140;-74
2022/08/28 13:32:55;;;;;;;1.17;1.08;;;;;;;;;;7378035;19;20640;-73
2022/08/28 13:35:20;;;;;;;0.60;0.60;;;;;;;;;;7389233;19;20136;-74
2022/08/28 13:37:48;;;;;;;0.53;0.53;;;;;;;;;;7383469;19;20125;-73
2022/08/28 13:40:17;;;;;;;0.50;0.50;;;;;;;;;;7367519;19;20698;-72
2022/08/28 13:42:43;;;;;;;2.50;0.40;;;;;;;;;;7394169;19;20149;-73
2022/08/28 13:45:08;;;;;;;0.50;0.50;;;;;;;;;;7392536;19;20535;-72
2022/08/28 13:47:33;;;;;;;0.55;0.55;;;;;;;;;;7385685;19;20125;-72
2022/08/28 13:49:59;;;;;;;0.50;0.50;;;;;;;;;;7387947;19;20208;-73
2022/08/28 13:52:24;;;;;;;0.40;0.40;;;;;;;;;;7381584;19;20151;-73
2022/08/28 13:54:49;;;;;;;0.70;0.70;;;;;;;;;;7386849;19;20128;-72
2022/08/28 13:57:15;;;;;;;0.60;0.60;;;;;;;;;;7391560;19;20121;-72
2022/08/28 13:59:40;;;;;;;0.50;0.50;;;;;;;;;;7384814;19;20130;-72
2022/08/28 14:04:52;;;;;;;0.57;0.57;;;;;;;;;;7392677;19;20147;-72
2022/08/28 14:07:18;;;;;;;0.88;0.88;;;;;;;;;;7385204;19;20121;-72
2022/08/28 14:09:43;;;;;;;0.55;0.55;;;;;;;;;;7388397;19;20141;-72
2022/08/28 14:12:09;;;;;;;0.60;0.60;;;;;;;;;;7391722;19;20128;-72
2022/08/28 14:14:36;;;;;;;0.55;0.55;;;;;;;;;;7393478;19;20124;-72
2022/08/28 14:17:01;;;;;;;0.60;0.60;;;;;;;;;;7388909;19;20128;-72
2022/08/28 14:19:27;;;;;;;0.43;0.40;;;;;;;;;;7390408;19;20124;-73
2022/08/28 14:21:53;;;;;;;0.50;0.50;;;;;;;;;;7386959;19;20160;-72
2022/08/28 14:24:19;;;;;;;0.45;0.45;;;;;;;;;;7388094;19;20144;-72
2022/08/28 14:26:44;;;;;;;0.85;0.85;;;;;;;;;;7386971;19;20216;-72
2022/08/28 14:29:11;;;;;;;0.80;0.80;;;;;;;;;;7392350;19;20156;-73
2022/08/28 14:31:39;;;;;;;0.40;0.40;;;;;;;;;;7390379;19;20192;-72
2022/08/28 14:34:05;;;;;;;0.40;0.40;;;;;;;;;;7385408;19;20180;-72
2022/08/28 14:36:31;;;;;;;0.77;0.75;;;;;;;;;;7388748;19;20129;-73
2022/08/28 14:38:59;;;;;;;0.50;0.50;;;;;;;;;;7389621;19;20152;-72
2022/08/28 14:41:25;;;;;;;0.50;0.40;;;;;;;;;;7388788;19;20121;-73
2022/08/28 14:43:50;;;;;;;0.75;0.75;;;;;;;;;;7384738;19;20200;-72
2022/08/28 14:46:18;;;;;;;0.40;0.40;;;;;;;;;;7393062;19;20489;-73
2022/08/28 14:48:44;;;;;;;0.65;0.63;;;;;;;;;;7384396;19;20132;-73
2022/08/28 14:51:09;;;;;;;0.43;0.43;;;;;;;;;;7385059;19;20662;-73
2022/08/28 14:53:35;;;;;;;0.40;0.40;;;;;;;;;;7391158;19;20163;-72
2022/08/28 14:56:01;;;;;;;0.30;0.30;;;;;;;;;;7388018;19;20136;-72
2022/08/28 14:58:26;;;;;;;0.50;0.50;;;;;;;;;;7394381;19;20121;-73
2022/08/28 15:00:52;;;;;;;0.60;0.60;;;;;;;;;;7390624;19;20217;-72
2022/08/28 15:03:18;;;;;;;0.30;0.30;;;;;;;;;;7392233;19;20151;-72
2022/08/28 15:05:43;;;;;;;0.40;0.40;;;;;;;;;;7386841;19;20417;-72
2022/08/28 15:08:11;;;;;;;0.40;0.40;;;;;;;;;;7385463;19;20121;-73
2022/08/28 15:10:38;;;;;;;0.55;0.52;;;;;;;;;;7382442;19;20121;-72
2022/08/28 15:13:04;;;;;;;0.70;0.70;;;;;;;;;;7377694;19;20520;-72
2022/08/28 15:15:32;;;;;;;0.40;0.40;;;;;;;;;;7387912;19;20156;-73
2022/08/28 15:17:57;;;;;;;0.43;0.43;;;;;;;;;;7389300;19;20196;-72
2022/08/28 15:20:22;;;;;;;0.38;0.38;;;;;;;;;;7388844;19;20182;-72
2022/08/28 15:22:47;;;;;;;0.88;0.88;;;;;;;;;;7387143;19;20172;-72
2022/08/28 15:25:13;;;;;;;0.30;0.30;;;;;;;;;;7383087;19;20133;-73
2022/08/28 15:27:38;;;;;;;0.50;0.50;;;;;;;;;;7385065;19;20125;-73
2022/08/28 15:30:04;;;;;;;0.55;0.55;;;;;;;;;;7388172;19;20511;-72
2022/08/28 15:32:29;;;;;;;2.58;0.77;;;;;;;;;;7391005;19;20196;-72
2022/08/28 15:34:54;;;;;;;0.40;0.40;;;;;;;;;;7389294;19;20137;-72
2022/08/28 15:37:20;;;;;;;0.60;0.60;;;;;;;;;;7393709;19;20133;-72
2022/08/28 15:42:30;;;;;;;0.43;0.43;;;;;;;;;;7377161;19;20164;-72
2022/08/28 15:44:55;;;;;;;0.70;0.60;;;;;;;;;;7374127;19;20129;-72
2022/08/28 15:47:21;;;;;;;0.30;0.30;;;;;;;;;;7376285;19;20177;-72
2022/08/28 15:49:52;;;;;;;0.45;0.45;;;;;;;;;;7377798;19;20170;-72
2022/08/28 15:52:18;;;;;;;0.50;0.50;;;;;;;;;;7385420;19;20153;-72
2022/08/28 15:54:43;;;;;;;0.40;0.40;;;;;;;;;;7376447;19;20135;-72
2022/08/28 15:57:09;;;;;;;0.50;0.50;;;;;;;;;;7386936;19;20141;-72
2022/08/28 15:59:34;;;;;;;0.30;0.30;;;;;;;;;;7384835;19;20602;-73
2022/08/28 16:02:00;;;;;;;0.50;0.50;;;;;;;;;;7389544;19;20154;-72
2022/08/28 16:04:26;;;;;;;0.30;0.30;;;;;;;;;;7381960;19;20196;-72
2022/08/28 16:06:51;;;;;;;0.40;0.40;;;;;;;;;;7380422;19;20125;-72
2022/08/28 16:09:17;;;;;;;1.48;0.70;;;;;;;;;;7376229;19;20474;-72
2022/08/28 16:11:42;;;;;;;0.60;0.60;;;;;;;;;;7375376;19;20120;-72
2022/08/28 16:14:09;;;;;;;0.43;0.43;;;;;;;;;;7378661;19;20153;-72
2022/08/28 16:16:34;;;;;;;0.32;0.32;;;;;;;;;;7384128;19;20148;-72
2022/08/28 16:19:00;;;;;;;0.30;0.30;;;;;;;;;;7379562;19;20129;-72
2022/08/28 16:21:26;;;;;;;0.30;0.30;;;;;;;;;;7378203;19;20124;-72
2022/08/28 16:23:51;;;;;;;0.50;0.50;;;;;;;;;;7379752;19;20181;-72
2022/08/28 16:26:17;;;;;;;0.40;0.40;;;;;;;;;;7384763;19;20587;-72
2022/08/28 16:28:43;;;;;;;0.40;0.40;;;;;;;;;;7379939;19;20188;-72
2022/08/28 16:31:09;;;;;;;0.40;0.40;;;;;;;;;;7379609;19;20144;-72
2022/08/28 16:33:35;;;;;;;0.50;0.50;;;;;;;;;;7369783;19;20145;-72
2022/08/28 16:36:04;;;;;;;0.40;0.40;;;;;;;;;;7367227;19;20201;-72
2022/08/28 16:38:30;;;;;;;0.30;0.30;;;;;;;;;;7382172;19;20168;-72
2022/08/28 16:40:55;;;;;;;0.85;0.85;;;;;;;;;;7374988;19;20220;-72
2022/08/28 16:43:21;;;;;;;1.95;0.63;;;;;;;;;;7374761;19;20173;-72
2022/08/28 16:45:46;;;;;;;0.30;0.30;;;;;;;;;;7379391;19;20140;-72
2022/08/28 16:48:13;;;;;;;0.43;0.43;;;;;;;;;;7373386;19;20133;-72
2022/08/28 16:50:42;;;;;;;0.50;0.50;;;;;;;;;;7374410;19;20125;-72
2022/08/28 16:53:08;;;;;;;0.52;0.52;;;;;;;;;;7374216;19;20152;-72
2022/08/28 16:55:33;;;;;;;0.40;0.40;;;;;;;;;;7378216;19;20590;-72
2022/08/28 16:57:59;;;;;;;0.30;0.30;;;;;;;;;;7375978;19;20524;-72
2022/08/28 17:00:24;;;;;;;0.40;0.40;;;;;;;;;;7374809;19;20117;-72
2022/08/28 17:02:50;;;;;;;0.30;0.30;;;;;;;;;;7366674;19;20145;-72
2022/08/28 17:05:18;;;;;;;0.65;0.65;;;;;;;;;;7378208;19;20125;-72
2022/08/28 17:07:44;;;;;;;0.32;0.32;;;;;;;;;;7362709;19;20595;-72
2022/08/28 17:10:12;;;;;;;0.40;0.40;;;;;;;;;;7368050;19;20138;-72
2022/08/28 17:12:38;;;;;;;0.43;0.43;;;;;;;;;;7372735;19;20184;-72
2022/08/28 17:15:05;;;;;;;0.40;0.40;;;;;;;;;;7365101;19;20150;-72
2022/08/28 17:17:30;;;;;;;0.30;0.30;;;;;;;;;;7365635;19;20164;-72
